Time;durP1;ratioP1;P1;durP2;ratioP2;P2;SDS_P1;SDS_P2;PMS_P1;PMS_P2;Temp;Humidity;BMP_temperature;BMP_pressure;BME280_temperature;BME280_humidity;BME280_pressure;Samples;Min_cycle;Max_cycle;Signal;HPM_P1;HPM_P2
2022/03/27 00:00:28;;;;;;;1.23;0.63;;;15.30;99.90;;;;;;6317282;22;20223;-91
2022/03/27 00:02:59;;;;;;;1.70;0.70;;;15.40;99.90;;;;;;6320556;22;20200;-92
2022/03/27 00:05:31;;;;;;;1.97;0.90;;;15.30;99.90;;;;;;6327897;22;20205;-92
2022/03/27 00:08:02;;;;;;;2.33;0.90;;;15.30;99.90;;;;;;6332440;22;20170;-92
2022/03/27 00:11:23;;;;;;;1.00;0.53;;;15.40;99.90;;;;;;6333561;22;20184;-92
2022/03/27 00:13:25;;;;;;;1.33;0.80;;;15.30;99.90;;;;;;6319782;22;20220;-92
2022/03/27 00:15:59;;;;;;;2.03;0.83;;;15.30;99.90;;;;;;6318594;22;20605;-92
2022/03/27 00:18:31;;;;;;;1.43;0.70;;;15.30;99.90;;;;;;6318367;22;20197;-92
2022/03/27 00:21:02;;;;;;;1.17;0.70;;;15.30;99.90;;;;;;6321636;22;20174;-93
2022/03/27 00:23:35;;;;;;;1.73;0.67;;;15.30;99.90;;;;;;6326858;22;20217;-92
2022/03/27 00:26:09;;;;;;;2.97;0.60;;;15.30;99.90;;;;;;6324589;22;20204;-91
2022/03/27 00:28:46;;;;;;;2.40;0.60;;;15.30;99.90;;;;;;6319923;22;20174;-93
2022/03/27 00:31:19;;;;;;;1.33;0.53;;;15.30;99.90;;;;;;6324148;22;20181;-94
2022/03/27 00:33:51;;;;;;;2.90;0.77;;;15.30;99.90;;;;;;6318940;22;20174;-93
2022/03/27 00:36:22;;;;;;;0.80;0.67;;;15.20;99.90;;;;;;6320287;22;20182;-92
2022/03/27 00:38:53;;;;;;;1.40;0.60;;;15.40;99.90;;;;;;6315481;22;20190;-93
2022/03/27 00:41:25;;;;;;;1.47;1.00;;;15.40;99.90;;;;;;6318698;22;20204;-92
2022/03/27 00:43:57;;;;;;;0.87;0.70;;;15.50;99.90;;;;;;6317113;22;20236;-93
2022/03/27 00:46:30;;;;;;;3.00;0.93;;;15.50;99.90;;;;;;6317086;22;20205;-92
2022/03/27 00:49:01;;;;;;;0.87;0.73;;;15.40;99.90;;;;;;6316577;22;20178;-92
2022/03/27 00:51:32;;;;;;;2.03;0.80;;;15.40;99.90;;;;;;6316511;22;20170;-92
2022/03/27 00:54:04;;;;;;;2.07;0.63;;;15.40;99.90;;;;;;6316068;22;20174;-92
2022/03/27 00:56:35;;;;;;;1.57;0.60;;;15.40;99.90;;;;;;6314909;22;20270;-92
2022/03/27 00:59:07;;;;;;;1.37;0.70;;;15.40;99.90;;;;;;6314755;22;20174;-93
2022/03/27 01:01:42;;;;;;;2.27;0.63;;;15.40;99.90;;;;;;6300718;22;20206;-90
2022/03/27 01:04:14;;;;;;;1.07;0.70;;;15.40;99.90;;;;;;6314940;22;20241;-91
2022/03/27 01:06:46;;;;;;;0.90;0.63;;;15.40;99.90;;;;;;6315700;22;20251;-91
2022/03/27 01:09:40;;;;;;;1.83;0.70;;;15.40;99.90;;;;;;6312036;22;20621;-92
2022/03/27 01:12:22;;;;;;;1.53;0.80;;;15.40;99.90;;;;;;6319960;22;20185;-92
2022/03/27 01:14:54;;;;;;;2.60;0.50;;;15.40;99.90;;;;;;6324170;22;20190;-90
2022/03/27 01:17:28;;;;;;;0.80;0.50;;;15.30;99.90;;;;;;6315047;22;20190;-92
2022/03/27 01:20:00;;;;;;;2.10;0.50;;;15.20;99.90;;;;;;6314561;22;20216;-91
2022/03/27 01:22:34;;;;;;;1.33;0.70;;;15.20;99.90;;;;;;6317146;22;20166;-92
2022/03/27 01:25:06;;;;;;;0.57;0.57;;;15.20;99.90;;;;;;6315124;22;20235;-93
2022/03/27 01:27:38;;;;;;;0.70;0.50;;;15.20;99.90;;;;;;6315962;22;20550;-93
2022/03/27 01:30:12;;;;;;;1.20;0.67;;;15.10;99.90;;;;;;6314098;22;20186;-93
2022/03/27 01:32:43;;;;;;;1.70;0.90;;;15.10;99.90;;;;;;6316325;22;20212;-91
2022/03/27 01:35:15;;;;;;;1.07;0.77;;;15.10;99.90;;;;;;6318722;22;20174;-91
2022/03/27 01:37:48;;;;;;;1.90;0.70;;;15.00;99.90;;;;;;6314757;22;20691;-93
2022/03/27 01:40:20;;;;;;;0.93;0.70;;;15.00;99.90;;;;;;6315067;22;20174;-92
2022/03/27 01:42:55;;;;;;;3.17;0.70;;;15.00;99.90;;;;;;6324942;22;20182;-94
2022/03/27 01:45:29;;;;;;;1.73;0.70;;;15.00;99.90;;;;;;6316020;22;20170;-93
2022/03/27 01:48:05;;;;;;;1.40;0.80;;;14.90;99.90;;;;;;6326443;22;20201;-92
2022/03/27 01:53:20;;;;;;;1.47;0.83;;;14.80;99.90;;;;;;6329031;22;20235;-91
2022/03/27 01:55:53;;;;;;;1.40;0.60;;;14.70;99.90;;;;;;6331350;22;20167;-90
2022/03/27 01:58:24;;;;;;;0.60;0.60;;;14.60;99.90;;;;;;6330264;22;20185;-91
2022/03/27 02:03:54;;;;;;;1.13;0.83;;;14.60;99.90;;;;;;6324971;22;20188;-93
2022/03/27 02:06:25;;;;;;;1.03;0.90;;;14.50;99.90;;;;;;6317833;22;20181;-92
2022/03/27 02:09:01;;;;;;;1.60;1.10;;;14.50;99.90;;;;;;6317307;22;20189;-92
2022/03/27 02:11:34;;;;;;;2.03;1.20;;;14.40;99.90;;;;;;6318604;22;20174;-91
2022/03/27 02:14:08;;;;;;;1.10;1.00;;;14.30;99.90;;;;;;6315509;22;20167;-91
2022/03/27 02:16:44;;;;;;;2.63;0.80;;;14.20;99.90;;;;;;6316749;22;20177;-91
2022/03/27 02:19:16;;;;;;;1.00;0.80;;;14.10;99.90;;;;;;6317467;22;20245;-92
2022/03/27 02:21:48;;;;;;;2.10;1.10;;;14.10;99.90;;;;;;6328263;22;20167;-92
2022/03/27 02:24:22;;;;;;;2.07;0.90;;;14.00;99.90;;;;;;6335522;22;20166;-92
2022/03/27 02:26:54;;;;;;;1.27;1.10;;;13.90;99.90;;;;;;6333951;22;20196;-92
2022/03/27 02:29:25;;;;;;;3.10;1.40;;;13.90;99.90;;;;;;6326405;22;20159;-91
2022/03/27 02:31:56;;;;;;;2.53;1.00;;;13.80;99.90;;;;;;6331753;22;20231;-94
2022/03/27 02:34:28;;;;;;;1.00;1.00;;;13.70;99.90;;;;;;6326167;22;20167;-90
2022/03/27 02:37:00;;;;;;;1.33;0.80;;;13.70;99.90;;;;;;6324967;22;20178;-96
2022/03/27 02:39:33;;;;;;;2.00;0.53;;;13.60;99.90;;;;;;6329707;22;20174;-92
2022/03/27 02:42:09;;;;;;;1.13;0.70;;;13.60;99.90;;;;;;6326503;22;20182;-90
2022/03/27 02:44:41;;;;;;;1.33;0.60;;;13.50;99.90;;;;;;6322035;22;20175;-91
2022/03/27 02:47:14;;;;;;;1.30;0.63;;;13.50;99.90;;;;;;6315368;22;20277;-93
2022/03/27 02:49:46;;;;;;;2.70;0.80;;;13.40;99.90;;;;;;6314628;22;20182;-92
2022/03/27 02:55:06;;;;;;;1.37;0.70;;;13.40;99.90;;;;;;6314540;22;20174;-91
2022/03/27 02:57:39;;;;;;;1.70;0.80;;;13.40;99.90;;;;;;6314742;22;20646;-93
2022/03/27 03:00:12;;;;;;;1.07;0.77;;;13.30;99.90;;;;;;6315813;22;20174;-91
2022/03/27 03:05:44;;;;;;;2.20;1.10;;;13.10;99.90;;;;;;6330522;22;20205;-91
2022/03/27 03:11:23;;;;;;;1.83;1.00;;;13.00;99.90;;;;;;6326384;22;20187;-92
2022/03/27 03:13:54;;;;;;;1.53;1.00;;;12.90;99.90;;;;;;6326890;22;20173;-91
2022/03/27 03:16:47;;;;;;;2.30;0.80;;;12.90;99.90;;;;;;6312458;22;20198;-91
2022/03/27 03:19:20;;;;;;;1.90;1.27;;;12.80;99.90;;;;;;6314316;22;20174;-91
2022/03/27 03:21:52;;;;;;;1.90;1.17;;;12.80;99.90;;;;;;6324363;22;20193;-91
2022/03/27 03:24:27;;;;;;;1.93;1.53;;;12.70;99.90;;;;;;6319549;22;20178;-93
2022/03/27 03:27:02;;;;;;;2.50;1.63;;;12.70;99.90;;;;;;6313459;22;20196;-91
2022/03/27 03:29:34;;;;;;;6.40;2.30;;;12.70;99.90;;;;;;6323950;22;20160;-91
2022/03/27 03:32:07;;;;;;;3.00;2.70;;;12.60;99.90;;;;;;6316056;22;20174;-93
2022/03/27 03:34:39;;;;;;;3.40;3.10;;;12.60;99.90;;;;;;6313766;22;20201;-92
2022/03/27 03:37:11;;;;;;;4.70;3.00;;;12.60;99.90;;;;;;6313439;22;20181;-93
2022/03/27 03:39:44;;;;;;;4.47;3.67;;;12.50;99.90;;;;;;6330263;22;20181;-92
2022/03/27 03:42:17;;;;;;;5.20;2.63;;;12.50;99.90;;;;;;6333931;22;20162;-91
2022/03/27 03:44:49;;;;;;;4.57;3.10;;;12.50;99.90;;;;;;6333897;22;20177;-91
2022/03/27 03:47:21;;;;;;;3.97;3.50;;;12.40;99.90;;;;;;6333794;22;20174;-91
2022/03/27 03:49:52;;;;;;;5.67;4.13;;;12.30;99.90;;;;;;6332311;22;20189;-92
2022/03/27 03:52:24;;;;;;;5.23;3.73;;;12.30;99.90;;;;;;6315159;22;20186;-92
2022/03/27 03:54:55;;;;;;;5.77;3.70;;;12.30;99.90;;;;;;6317443;22;20197;-92
2022/03/27 03:57:29;;;;;;;3.93;3.33;;;12.30;99.90;;;;;;6314606;22;20251;-92
2022/03/27 04:00:02;;;;;;;4.10;3.10;;;12.30;99.90;;;;;;6321992;22;20180;-91
2022/03/27 04:02:37;;;;;;;4.43;3.30;;;12.30;99.90;;;;;;6322667;22;20175;-93
2022/03/27 04:05:09;;;;;;;4.07;2.80;;;12.30;99.90;;;;;;6325502;22;20612;-92
2022/03/27 04:07:41;;;;;;;5.10;3.00;;;12.30;99.90;;;;;;6320453;22;20198;-92
2022/03/27 04:10:19;;;;;;;3.63;2.63;;;12.30;99.90;;;;;;6329939;22;20169;-91
2022/03/27 04:12:57;;;;;;;5.93;3.03;;;12.30;99.90;;;;;;6325131;22;20166;-91
2022/03/27 04:15:31;;;;;;;4.10;2.90;;;12.30;99.90;;;;;;6329773;22;20177;-91
2022/03/27 04:18:24;;;;;;;3.27;2.87;;;12.30;99.90;;;;;;6314851;22;20179;-91
2022/03/27 04:20:55;;;;;;;3.73;2.80;;;12.30;99.90;;;;;;6313367;22;20163;-92
2022/03/27 04:23:26;;;;;;;3.93;2.70;;;12.30;99.90;;;;;;6317602;22;20178;-91
2022/03/27 04:25:59;;;;;;;3.37;2.70;;;12.40;99.90;;;;;;6314303;22;20197;-92
2022/03/27 04:28:33;;;;;;;2.97;2.30;;;12.30;99.90;;;;;;6313428;22;20194;-91
2022/03/27 04:31:06;;;;;;;4.40;3.10;;;12.30;99.90;;;;;;6312809;22;20173;-91
2022/03/27 04:33:41;;;;;;;4.57;2.50;;;12.30;99.90;;;;;;6312492;22;20847;-91
2022/03/27 04:36:13;;;;;;;3.83;2.53;;;12.30;99.90;;;;;;6313757;22;20220;-92
2022/03/27 04:38:44;;;;;;;3.57;2.53;;;12.30;99.90;;;;;;6314350;22;20175;-91
2022/03/27 04:41:20;;;;;;;3.20;2.33;;;12.30;99.90;;;;;;6333391;22;20212;-89
2022/03/27 04:43:55;;;;;;;3.47;3.00;;;12.30;99.90;;;;;;6334580;22;20207;-91
2022/03/27 04:46:27;;;;;;;3.67;2.73;;;12.30;99.90;;;;;;6328348;22;20177;-92
2022/03/27 04:49:03;;;;;;;3.93;3.33;;;12.30;99.90;;;;;;6317797;22;20203;-92
2022/03/27 04:51:35;;;;;;;4.90;3.20;;;12.20;99.90;;;;;;6291739;22;20185;-92
2022/03/27 04:54:07;;;;;;;3.00;2.70;;;12.10;99.90;;;;;;6314561;22;20182;-92
2022/03/27 04:56:38;;;;;;;3.20;2.60;;;12.10;99.90;;;;;;6316318;22;20174;-91
2022/03/27 04:59:11;;;;;;;5.17;2.70;;;12.00;99.90;;;;;;6314593;22;20178;-92
2022/03/27 05:01:43;;;;;;;4.00;2.90;;;12.00;99.90;;;;;;6315474;22;20170;-92
2022/03/27 05:04:18;;;;;;;5.63;2.30;;;12.00;99.90;;;;;;6314364;22;20178;-92
2022/03/27 05:06:49;;;;;;;2.90;2.50;;;11.90;99.90;;;;;;6318608;22;20205;-93
2022/03/27 05:09:20;;;;;;;4.83;2.60;;;11.90;99.90;;;;;;6314865;22;20224;-91
2022/03/27 05:11:52;;;;;;;3.13;2.27;;;11.90;99.90;;;;;;6322622;22;20670;-92
2022/03/27 05:14:25;;;;;;;3.57;2.20;;;11.90;99.90;;;;;;6323553;22;20166;-91
2022/03/27 05:16:56;;;;;;;4.07;2.90;;;11.80;99.90;;;;;;6326151;22;20200;-92
2022/03/27 05:19:30;;;;;;;3.83;2.80;;;11.70;99.90;;;;;;6332639;22;20178;-92
2022/03/27 05:22:01;;;;;;;3.90;2.97;;;11.70;99.90;;;;;;6333184;22;20185;-92
2022/03/27 05:24:34;;;;;;;4.23;2.70;;;11.60;99.90;;;;;;6323274;22;20174;-91
2022/03/27 05:27:06;;;;;;;3.37;3.07;;;11.60;99.90;;;;;;6315642;22;20276;-92
2022/03/27 05:29:42;;;;;;;3.63;3.03;;;11.60;99.90;;;;;;6314835;22;20193;-92
2022/03/27 05:32:14;;;;;;;5.00;2.57;;;11.60;99.90;;;;;;6315551;22;20174;-94
2022/03/27 05:34:45;;;;;;;6.03;2.83;;;11.50;99.90;;;;;;6313316;22;20171;-88
2022/03/27 05:37:20;;;;;;;3.13;2.60;;;11.50;99.90;;;;;;6324593;22;20240;-92
2022/03/27 05:39:52;;;;;;;3.77;2.67;;;11.50;99.90;;;;;;6320006;22;20174;-90
2022/03/27 05:42:23;;;;;;;4.30;3.70;;;11.50;99.90;;;;;;6316429;22;20263;-91
2022/03/27 05:44:59;;;;;;;6.10;3.77;;;11.50;99.90;;;;;;6315989;22;20170;-93
2022/03/27 05:47:34;;;;;;;6.50;2.93;;;11.50;99.90;;;;;;6314691;22;20185;-92
2022/03/27 05:50:07;;;;;;;6.87;3.20;;;11.50;99.90;;;;;;6316369;22;20218;-92
2022/03/27 05:52:39;;;;;;;6.37;3.30;;;11.50;99.90;;;;;;6316281;22;20247;-91
2022/03/27 05:55:10;;;;;;;3.73;3.00;;;11.50;99.90;;;;;;6323942;22;20181;-91
2022/03/27 05:57:42;;;;;;;5.47;3.27;;;11.50;99.90;;;;;;6318301;22;20208;-92
2022/03/27 06:00:20;;;;;;;4.87;3.80;;;11.60;99.90;;;;;;6323860;22;20185;-91
2022/03/27 06:02:52;;;;;;;6.87;3.80;;;11.60;99.90;;;;;;6315829;22;20174;-92
2022/03/27 06:05:24;;;;;;;7.60;4.10;;;11.60;99.90;;;;;;6314506;22;20284;-93
2022/03/27 06:07:56;;;;;;;7.93;4.37;;;11.50;99.90;;;;;;6315160;22;20185;-92
2022/03/27 06:10:31;;;;;;;8.87;3.83;;;11.50;99.90;;;;;;6315459;22;20273;-91
2022/03/27 06:13:03;;;;;;;9.33;5.03;;;11.50;99.90;;;;;;6315913;22;20174;-92
2022/03/27 06:15:37;;;;;;;6.77;4.73;;;11.50;99.90;;;;;;6315272;22;20174;-91
2022/03/27 06:20:57;;;;;;;5.90;3.60;;;11.40;99.90;;;;;;6318803;22;20220;-92
2022/03/27 06:23:29;;;;;;;8.87;4.40;;;11.40;99.90;;;;;;6328018;22;20174;-91
2022/03/27 06:26:01;;;;;;;10.73;4.70;;;11.40;99.90;;;;;;6319753;22;20665;-92
2022/03/27 06:28:36;;;;;;;8.63;4.73;;;11.50;99.90;;;;;;6313258;22;20200;-91
2022/03/27 06:31:13;;;;;;;7.43;4.43;;;11.40;99.90;;;;;;6289523;22;20163;-91
2022/03/27 06:33:44;;;;;;;10.40;4.77;;;11.40;99.90;;;;;;6313998;22;20190;-91
2022/03/27 06:39:00;;;;;;;6.90;4.87;;;11.30;99.90;;;;;;6313175;22;20206;-91
2022/03/27 06:41:32;;;;;;;6.47;3.87;;;11.30;99.90;;;;;;6313164;22;20178;-91
2022/03/27 06:44:04;;;;;;;8.57;4.37;;;11.30;99.90;;;;;;6325810;22;20325;-91
2022/03/27 06:46:37;;;;;;;5.53;4.20;;;11.30;99.90;;;;;;6332591;22;20212;-91
2022/03/27 06:49:09;;;;;;;5.80;3.93;;;11.20;99.90;;;;;;6322049;22;20205;-92
2022/03/27 06:51:40;;;;;;;8.27;4.03;;;11.20;99.90;;;;;;6320366;22;20197;-91
2022/03/27 06:54:13;;;;;;;6.40;3.90;;;11.20;99.90;;;;;;6335231;22;20158;-89
2022/03/27 06:56:44;;;;;;;4.77;3.83;;;11.20;99.90;;;;;;6334993;22;20159;-91
2022/03/27 06:59:16;;;;;;;6.70;4.30;;;11.20;99.90;;;;;;6323178;22;20236;-92
2022/03/27 07:04:54;;;;;;;7.57;3.70;;;11.10;99.90;;;;;;6314643;22;20607;-91
2022/03/27 07:07:27;;;;;;;7.67;4.40;;;11.10;99.90;;;;;;6313610;22;20208;-91
2022/03/27 07:09:59;;;;;;;7.90;4.03;;;11.10;99.90;;;;;;6311670;22;20282;-90
2022/03/27 07:12:33;;;;;;;10.53;4.10;;;11.10;99.90;;;;;;6312694;22;20253;-93
2022/03/27 07:15:04;;;;;;;8.77;4.27;;;11.10;99.90;;;;;;6313298;22;20177;-92
2022/03/27 07:17:53;;;;;;;5.07;3.63;;;11.10;99.90;;;;;;6312353;22;20170;-92
2022/03/27 07:20:26;;;;;;;6.67;4.47;;;11.10;99.90;;;;;;6313579;22;20178;-92
2022/03/27 07:23:00;;;;;;;8.80;4.03;;;11.10;99.90;;;;;;6311673;22;20628;-92
2022/03/27 07:25:33;;;;;;;6.10;3.90;;;11.10;99.90;;;;;;6314374;22;20591;-92
2022/03/27 07:28:05;;;;;;;6.63;3.80;;;11.10;99.90;;;;;;6311844;22;20236;-91
2022/03/27 07:30:37;;;;;;;6.53;3.53;;;11.10;99.90;;;;;;6313283;22;20202;-91
2022/03/27 07:35:45;;;;;;;6.57;3.97;;;11.10;99.90;;;;;;6317055;22;20602;-90
2022/03/27 07:38:17;;;;;;;5.37;3.67;;;11.10;99.90;;;;;;6313384;22;20291;-92
2022/03/27 07:40:49;;;;;;;7.43;4.10;;;11.00;99.90;;;;;;6312756;22;20194;-91
2022/03/27 07:43:22;;;;;;;7.23;3.77;;;11.00;99.90;;;;;;6286027;22;20254;-91
2022/03/27 07:45:53;;;;;;;4.57;3.50;;;11.00;99.90;;;;;;6313205;22;20489;-92
2022/03/27 07:48:24;;;;;;;6.50;4.30;;;10.90;99.90;;;;;;6311403;22;20216;-91
2022/03/27 07:50:58;;;;;;;8.37;4.30;;;10.90;99.90;;;;;;6260713;22;20195;-91
2022/03/27 07:53:30;;;;;;;6.10;4.20;;;10.90;99.90;;;;;;6312032;22;20227;-90
2022/03/27 07:56:03;;;;;;;6.27;3.87;;;10.80;99.90;;;;;;6292729;22;20178;-93
2022/03/27 07:58:50;;;;;;;6.63;4.27;;;10.80;99.90;;;;;;6311878;22;20628;-92
2022/03/27 08:01:22;;;;;;;6.97;4.03;;;10.80;99.90;;;;;;6326006;22;20201;-93
2022/03/27 08:03:56;;;;;;;6.37;3.50;;;10.80;99.90;;;;;;6312173;22;20178;-92
2022/03/27 08:06:31;;;;;;;6.70;4.03;;;10.80;99.90;;;;;;6311718;22;20170;-91
2022/03/27 08:09:03;;;;;;;6.93;3.80;;;10.80;99.90;;;;;;6311249;22;20171;-92
2022/03/27 08:11:42;;;;;;;4.93;3.80;;;10.80;99.90;;;;;;6312614;22;20213;-91
2022/03/27 08:14:13;;;;;;;7.47;4.10;;;10.80;99.90;;;;;;6312294;22;20631;-92
2022/03/27 08:16:46;;;;;;;5.70;3.43;;;10.70;99.90;;;;;;6286322;22;20174;-91
2022/03/27 08:19:17;;;;;;;4.77;3.60;;;10.70;99.90;;;;;;6312234;22;20200;-92
2022/03/27 08:21:53;;;;;;;7.57;4.20;;;10.70;99.90;;;;;;6312675;22;20189;-92
2022/03/27 08:24:25;;;;;;;6.53;4.07;;;10.70;99.90;;;;;;6313066;22;20174;-92
2022/03/27 08:26:59;;;;;;;5.63;4.00;;;10.70;99.90;;;;;;6312008;22;20181;-91
2022/03/27 08:29:32;;;;;;;4.60;3.77;;;10.60;99.90;;;;;;6312456;22;20282;-90
2022/03/27 08:32:04;;;;;;;5.37;3.90;;;10.60;99.90;;;;;;6313348;22;20201;-91
2022/03/27 08:34:37;;;;;;;6.03;4.00;;;10.70;99.90;;;;;;6316041;22;20190;-92
2022/03/27 08:37:14;;;;;;;4.90;3.60;;;10.70;99.90;;;;;;6312485;22;20189;-92
2022/03/27 08:39:46;;;;;;;7.80;3.80;;;10.70;99.90;;;;;;6312812;22;20620;-90
2022/03/27 08:42:20;;;;;;;6.30;3.97;;;10.60;99.90;;;;;;6312351;22;20170;-90
2022/03/27 08:44:53;;;;;;;7.00;3.70;;;10.60;99.90;;;;;;6311914;22;20179;-91
2022/03/27 08:47:28;;;;;;;6.80;3.70;;;10.60;99.90;;;;;;6311926;22;20235;-91
2022/03/27 08:50:04;;;;;;;6.10;3.80;;;10.60;99.90;;;;;;6313380;22;20208;-90
2022/03/27 08:52:51;;;;;;;5.70;3.90;;;10.50;99.90;;;;;;6313543;22;20193;-92
2022/03/27 08:55:31;;;;;;;7.67;4.10;;;10.50;99.90;;;;;;6328013;22;20174;-92
2022/03/27 08:58:03;;;;;;;5.13;3.37;;;10.50;99.90;;;;;;6307551;22;20230;-93
2022/03/27 09:00:35;;;;;;;5.33;3.50;;;10.50;99.90;;;;;;6334035;22;20226;-91
2022/03/27 09:03:08;;;;;;;6.63;3.60;;;10.50;99.90;;;;;;6334286;22;20159;-91
2022/03/27 09:05:41;;;;;;;6.27;3.53;;;10.50;99.90;;;;;;6334351;22;20174;-91
2022/03/27 09:08:16;;;;;;;7.63;3.80;;;10.50;99.90;;;;;;6334107;22;20197;-91
2022/03/27 09:10:48;;;;;;;6.53;3.20;;;10.40;99.90;;;;;;6328592;22;20288;-91
2022/03/27 09:13:21;;;;;;;8.63;3.50;;;10.40;99.90;;;;;;6317148;22;20546;-91
2022/03/27 09:16:03;;;;;;;5.80;3.40;;;10.40;99.90;;;;;;6315637;22;20177;-91
2022/03/27 09:18:47;;;;;;;6.33;3.47;;;10.30;99.90;;;;;;6289467;22;20280;-91
2022/03/27 09:21:21;;;;;;;8.23;3.70;;;10.30;99.90;;;;;;6316877;22;20175;-91
2022/03/27 09:24:01;;;;;;;7.50;4.10;;;10.20;99.90;;;;;;6317535;22;20247;-92
2022/03/27 09:26:33;;;;;;;5.40;3.80;;;10.10;99.90;;;;;;6315598;22;20170;-91
2022/03/27 09:29:10;;;;;;;5.47;3.80;;;10.00;99.90;;;;;;6288162;22;20189;-90
2022/03/27 09:31:42;;;;;;;7.97;4.20;;;10.10;99.90;;;;;;6314287;22;20223;-91
2022/03/27 09:34:13;;;;;;;7.03;3.67;;;10.10;99.90;;;;;;6314379;22;20183;-92
2022/03/27 09:36:46;;;;;;;5.27;3.60;;;10.10;99.90;;;;;;6314191;22;20178;-92
2022/03/27 09:39:20;;;;;;;9.97;3.77;;;10.10;99.90;;;;;;6288067;22;20542;-91
2022/03/27 09:41:54;;;;;;;5.37;3.23;;;10.10;99.90;;;;;;6315431;22;20201;-92
2022/03/27 09:44:34;;;;;;;5.27;3.40;;;10.00;99.90;;;;;;6314805;22;20169;-90
2022/03/27 09:47:07;;;;;;;3.83;3.40;;;10.00;99.90;;;;;;6313040;22;20178;-92
2022/03/27 09:49:47;;;;;;;5.67;3.83;;;10.00;99.90;;;;;;6314986;22;20193;-91
2022/03/27 09:52:20;;;;;;;6.80;3.80;;;10.00;99.90;;;;;;6314875;22;20198;-92
2022/03/27 09:54:56;;;;;;;6.77;3.10;;;10.00;99.90;;;;;;6316498;22;20166;-92
2022/03/27 09:57:29;;;;;;;5.17;3.80;;;10.00;99.90;;;;;;6312984;22;20173;-92
2022/03/27 10:00:14;;;;;;;6.00;3.30;;;9.90;99.90;;;;;;6287764;22;20197;-91
2022/03/27 10:02:46;;;;;;;4.03;3.20;;;10.00;99.90;;;;;;6314303;22;20170;-92
2022/03/27 10:05:20;;;;;;;5.43;3.50;;;9.90;99.90;;;;;;6314346;22;20171;-90
2022/03/27 10:07:53;;;;;;;5.87;3.50;;;9.80;99.90;;;;;;6288273;22;20185;-90
2022/03/27 10:10:28;;;;;;;5.77;3.60;;;9.80;99.90;;;;;;6314318;22;20619;-90
2022/03/27 10:13:01;;;;;;;5.23;3.10;;;9.70;99.90;;;;;;6314267;22;20223;-92
2022/03/27 10:15:34;;;;;;;8.10;3.30;;;9.70;99.90;;;;;;6314376;22;20228;-92
2022/03/27 10:18:14;;;;;;;6.57;4.13;;;9.60;99.90;;;;;;6312769;22;20185;-93
2022/03/27 10:20:49;;;;;;;6.07;3.40;;;9.60;99.90;;;;;;6316224;22;20236;-92
2022/03/27 10:23:24;;;;;;;5.80;3.30;;;9.60;99.90;;;;;;6315025;22;20198;-92
2022/03/27 10:26:01;;;;;;;5.10;3.07;;;9.50;99.90;;;;;;6314223;22;20189;-91
2022/03/27 10:28:34;;;;;;;5.43;3.30;;;9.50;99.90;;;;;;6312385;22;20174;-91
2022/03/27 10:31:06;;;;;;;9.63;3.77;;;9.50;99.90;;;;;;6313865;22;20218;-91
2022/03/27 10:33:38;;;;;;;6.97;3.77;;;9.40;99.90;;;;;;6315319;22;20194;-91
2022/03/27 10:36:16;;;;;;;7.07;3.63;;;9.40;99.90;;;;;;6314544;22;20241;-90
2022/03/27 10:38:57;;;;;;;5.80;3.20;;;9.30;99.90;;;;;;6312833;22;20185;-90
2022/03/27 10:41:35;;;;;;;5.80;3.50;;;9.30;99.90;;;;;;6314364;22;20181;-91
2022/03/27 10:44:13;;;;;;;5.33;3.57;;;9.30;99.90;;;;;;6315031;22;20170;-91
2022/03/27 10:46:47;;;;;;;6.60;3.50;;;9.20;99.90;;;;;;6314663;22;20617;-90
2022/03/27 10:49:20;;;;;;;7.07;3.40;;;9.30;99.90;;;;;;6328560;22;20174;-90
2022/03/27 10:51:52;;;;;;;5.13;3.10;;;9.30;99.90;;;;;;6295318;22;20198;-91
2022/03/27 10:54:23;;;;;;;7.80;3.53;;;9.40;99.90;;;;;;6332586;22;20209;-90
2022/03/27 10:56:59;;;;;;;5.37;3.17;;;9.40;99.90;;;;;;6317909;22;20182;-91
2022/03/27 10:59:43;;;;;;;6.10;3.27;;;9.40;99.90;;;;;;6315374;22;20186;-91
2022/03/27 11:02:44;;;;;;;6.00;3.17;;;9.40;99.90;;;;;;6315366;22;20201;-92
2022/03/27 11:06:03;;;;;;;5.57;3.33;;;9.40;99.90;;;;;;6312860;22;20200;-93
2022/03/27 11:08:50;;;;;;;5.90;3.47;;;9.40;99.90;;;;;;6261034;22;20208;-92
2022/03/27 11:12:00;;;;;;;4.80;3.40;;;9.40;99.90;;;;;;6313793;22;20193;-92
2022/03/27 11:14:58;;;;;;;6.40;3.23;;;9.40;99.90;;;;;;6225912;22;20190;-90
2022/03/27 11:17:43;;;;;;;6.07;3.27;;;9.40;99.90;;;;;;6329094;22;20200;-91
2022/03/27 11:20:57;;;;;;;6.57;3.20;;;9.40;99.90;;;;;;6324043;22;20501;-91
2022/03/27 11:23:34;;;;;;;5.83;3.33;;;9.40;99.90;;;;;;6314429;22;20170;-90
2022/03/27 11:26:08;;;;;;;3.00;2.70;;;9.30;99.90;;;;;;6313529;22;20257;-91
2022/03/27 11:29:04;;;;;;;5.83;3.60;;;9.30;99.90;;;;;;6312755;22;20230;-91
2022/03/27 11:31:38;;;;;;;5.70;3.30;;;9.30;99.90;;;;;;6314198;22;20194;-92
2022/03/27 11:34:26;;;;;;;7.33;3.33;;;9.30;99.90;;;;;;6327509;22;20203;-92
2022/03/27 11:37:21;;;;;;;6.40;3.40;;;9.30;99.90;;;;;;6321336;22;20171;-90
2022/03/27 11:39:54;;;;;;;5.83;3.10;;;9.20;99.90;;;;;;6315616;22;20186;-90
2022/03/27 11:42:32;;;;;;;6.70;3.90;;;9.10;99.90;;;;;;6332694;22;20173;-90
2022/03/27 11:45:18;;;;;;;7.57;3.80;;;9.10;99.90;;;;;;6333600;22;20162;-92
2022/03/27 11:47:52;;;;;;;5.70;3.17;;;9.10;99.90;;;;;;6333383;22;20246;-91
2022/03/27 11:50:34;;;;;;;5.93;2.90;;;9.10;99.90;;;;;;6334209;22;20166;-91
2022/03/27 11:53:06;;;;;;;5.47;3.80;;;9.10;99.90;;;;;;6334025;22;20205;-90
2022/03/27 11:55:37;;;;;;;4.40;3.10;;;9.00;99.90;;;;;;6334312;22;20163;-91
2022/03/27 11:58:11;;;;;;;5.50;3.27;;;9.00;99.90;;;;;;6333571;22;20167;-91
2022/03/27 12:00:47;;;;;;;7.97;4.23;;;8.90;99.90;;;;;;6329960;22;20157;-91
2022/03/27 12:03:20;;;;;;;6.03;3.47;;;8.90;99.90;;;;;;6328805;22;20184;-89
2022/03/27 12:05:53;;;;;;;6.07;3.70;;;8.90;99.90;;;;;;6303531;22;20181;-92
2022/03/27 12:08:35;;;;;;;4.90;2.87;;;8.90;99.90;;;;;;6328186;22;20175;-91
2022/03/27 12:11:08;;;;;;;5.57;3.50;;;8.90;99.90;;;;;;6328826;22;20174;-91
2022/03/27 12:13:44;;;;;;;5.80;3.33;;;8.90;99.90;;;;;;6329866;22;20297;-89
2022/03/27 12:16:25;;;;;;;8.23;3.40;;;8.90;99.90;;;;;;6301863;22;20178;-90
2022/03/27 12:18:58;;;;;;;3.97;3.10;;;8.80;99.90;;;;;;6326610;22;20190;-91
2022/03/27 12:21:30;;;;;;;5.47;3.13;;;8.80;99.90;;;;;;6329218;22;20200;-91
2022/03/27 12:24:03;;;;;;;7.17;3.63;;;8.70;99.90;;;;;;6300361;22;20620;-92
2022/03/27 12:29:43;;;;;;;7.07;3.43;;;8.90;99.90;;;;;;6320033;22;20167;-90
2022/03/27 12:32:18;;;;;;;7.23;3.60;;;8.80;99.90;;;;;;6323214;22;20201;-92
2022/03/27 12:34:52;;;;;;;6.93;3.33;;;8.70;99.90;;;;;;6319102;22;20227;-90
2022/03/27 12:37:24;;;;;;;5.07;3.43;;;8.70;99.90;;;;;;6315299;22;20173;-90
2022/03/27 12:40:06;;;;;;;4.90;3.70;;;8.60;99.90;;;;;;6319287;22;20163;-91
2022/03/27 12:42:42;;;;;;;5.53;3.60;;;8.60;99.90;;;;;;6317411;22;20226;-91
2022/03/27 12:45:18;;;;;;;4.17;3.27;;;8.50;99.90;;;;;;6291734;22;20170;-91
2022/03/27 12:47:55;;;;;;;6.83;3.90;;;8.50;99.90;;;;;;6317242;22;20173;-91
2022/03/27 12:50:35;;;;;;;7.03;3.63;;;8.40;99.90;;;;;;6318294;22;20164;-91
2022/03/27 12:53:09;;;;;;;4.50;3.60;;;8.30;99.90;;;;;;6318065;22;20198;-91
2022/03/27 12:55:46;;;;;;;6.17;3.70;;;8.30;99.90;;;;;;6317646;22;20184;-91
2022/03/27 12:58:18;;;;;;;5.63;3.93;;;8.30;99.90;;;;;;6317073;22;20178;-92
2022/03/27 13:01:06;;;;;;;6.77;3.70;;;8.40;99.90;;;;;;6317543;22;20208;-91
2022/03/27 13:03:42;;;;;;;5.73;3.80;;;8.30;99.90;;;;;;6318538;22;20226;-91
2022/03/27 13:06:13;;;;;;;5.83;3.63;;;8.30;99.90;;;;;;6316855;22;20174;-91
2022/03/27 13:08:45;;;;;;;5.33;3.60;;;8.30;99.90;;;;;;6317006;22;20174;-91
2022/03/27 13:11:22;;;;;;;6.83;3.73;;;8.30;99.90;;;;;;6317045;22;20178;-91
2022/03/27 13:14:01;;;;;;;6.20;3.80;;;8.30;99.90;;;;;;6318183;22;20201;-91
2022/03/27 13:16:35;;;;;;;5.50;3.53;;;8.30;99.90;;;;;;6292154;22;20206;-91
2022/03/27 13:19:11;;;;;;;4.97;3.60;;;8.40;99.90;;;;;;6274612;22;20178;-91
2022/03/27 13:21:45;;;;;;;5.93;3.70;;;8.30;99.90;;;;;;6300968;22;20171;-92
2022/03/27 13:24:19;;;;;;;6.80;4.27;;;8.40;99.90;;;;;;6288140;22;20197;-90
2022/03/27 13:26:53;;;;;;;4.17;3.37;;;8.30;99.90;;;;;;6297756;22;20236;-91
2022/03/27 13:29:25;;;;;;;5.83;3.83;;;8.30;99.90;;;;;;6272292;22;20166;-91
2022/03/27 13:31:56;;;;;;;6.07;4.10;;;8.30;99.90;;;;;;6293324;22;20175;-89
2022/03/27 13:34:32;;;;;;;5.93;3.50;;;8.30;99.90;;;;;;6262424;22;20222;-92
2022/03/27 13:37:03;;;;;;;5.60;3.37;;;8.30;99.90;;;;;;6287593;22;20226;-92
2022/03/27 13:39:34;;;;;;;6.67;3.23;;;8.30;99.90;;;;;;6286213;22;20178;-92
2022/03/27 13:44:55;;;;;;;5.73;3.30;;;8.20;99.90;;;;;;6284765;22;20197;-92
2022/03/27 13:47:27;;;;;;;5.10;3.90;;;8.20;99.90;;;;;;6285192;22;20175;-92
2022/03/27 13:50:00;;;;;;;7.87;3.53;;;8.20;99.90;;;;;;6258479;22;20179;-90
2022/03/27 13:52:32;;;;;;;5.93;3.73;;;8.20;99.90;;;;;;6285246;22;20167;-91
2022/03/27 13:55:05;;;;;;;5.60;3.97;;;8.20;99.90;;;;;;6285262;22;20246;-91
2022/03/27 13:57:37;;;;;;;4.93;3.20;;;8.20;99.90;;;;;;6283209;22;20186;-91
2022/03/27 14:00:10;;;;;;;5.57;3.20;;;8.10;99.90;;;;;;6284024;22;20195;-91